Merritt Island, Florida
Current Conditions -  °F | °C
As of 4:58 AM on Saturday 25 Oct 2014 (Local Time) from KCOF Reporting Station
Overcast Overcast  
Wind Chill: 68°   Ceiling: 5000
Heat Index: 68°   Visibility: 10mi
Dew Point: 62°   Wind: 13mph
Humidity: 80%   Direction: 320°NW
Pressure: 29.92"   Gusts: NA
Location:  28.36°N, 80.68°W
Report Text: KCOF 250858Z AUTO 32011KT 10SM OVC050 20/17 A2992 RMK AO2 SLP136 T02020167 55002
Loading
Personal Weather Stations






























Interactive Weather Map
Tropical Storm Tracking
New forecast layout! Learn more

10-Day Weather Forecast

Advertisements
Track Severe Weather on mobile